createdAt,value
2023-08-09T00:01:55.680Z,2.65
2023-08-09T00:04:22.619Z,2.63
2023-08-09T00:06:49.606Z,2.75
2023-08-09T00:09:16.579Z,2.80
2023-08-09T00:11:43.524Z,2.50
2023-08-09T00:14:10.468Z,2.55
2023-08-09T00:16:37.433Z,3.05
2023-08-09T00:19:05.065Z,2.50
2023-08-09T00:21:32.867Z,2.25
2023-08-09T00:24:00.219Z,2.67
2023-08-09T00:26:27.504Z,2.45
2023-08-09T00:28:54.625Z,3.03
2023-08-09T00:31:21.797Z,2.60
2023-08-09T00:33:49.095Z,2.40
2023-08-09T00:36:16.935Z,3.08
2023-08-09T00:38:44.539Z,2.58
2023-08-09T00:41:12.167Z,2.88
2023-08-09T00:43:39.129Z,2.90
2023-08-09T00:46:06.555Z,2.80
2023-08-09T00:48:33.872Z,2.92
2023-08-09T00:51:01.014Z,2.67
2023-08-09T00:53:28.145Z,2.50
2023-08-09T00:55:55.169Z,2.65
2023-08-09T00:58:22.116Z,2.20
2023-08-09T01:00:49.153Z,2.22
2023-08-09T01:03:16.528Z,2.20
2023-08-09T01:06:07.704Z,2.38
2023-08-09T01:11:36.608Z,3.03
2023-08-09T01:14:06.428Z,2.88
2023-08-09T01:16:35.240Z,2.40
2023-08-09T01:19:07.910Z,2.70
2023-08-09T01:21:38.825Z,2.83
2023-08-09T01:26:33.913Z,2.55
2023-08-09T01:29:00.986Z,2.55
2023-08-09T01:31:28.387Z,2.45
2023-08-09T01:33:55.578Z,2.70
2023-08-09T01:36:30.914Z,2.70
2023-08-09T01:39:05.328Z,2.70
2023-08-09T01:41:32.596Z,3.28
2023-08-09T01:43:59.992Z,2.95
2023-08-09T01:46:31.165Z,2.67
2023-08-09T01:49:16.208Z,2.60
2023-08-09T01:51:43.212Z,2.40
2023-08-09T01:54:10.442Z,2.63
2023-08-09T01:56:37.574Z,2.72
2023-08-09T01:59:06.926Z,2.38
2023-08-09T02:01:34.048Z,2.70
2023-08-09T02:04:01.075Z,2.60
2023-08-09T02:06:28.150Z,2.65
2023-08-09T02:08:55.296Z,2.95
2023-08-09T02:11:22.296Z,2.90
2023-08-09T02:13:50.181Z,3.20
2023-08-09T02:16:17.419Z,2.72
2023-08-09T02:18:45.024Z,3.03
2023-08-09T02:21:12.151Z,2.75
2023-08-09T02:23:39.721Z,2.90
2023-08-09T02:26:08.827Z,2.70
2023-08-09T02:28:35.876Z,2.88
2023-08-09T02:31:03.459Z,2.88
2023-08-09T02:33:30.497Z,2.88
2023-08-09T02:36:01.753Z,2.53
2023-08-09T02:38:29.712Z,2.88
2023-08-09T02:40:57.231Z,2.85
2023-08-09T02:43:28.083Z,2.90
2023-08-09T02:45:55.952Z,2.95
2023-08-09T02:48:23.890Z,2.83
2023-08-09T02:50:51.178Z,2.78
2023-08-09T02:53:18.702Z,2.90
2023-08-09T02:55:45.765Z,3.05
2023-08-09T02:58:13.887Z,3.10
2023-08-09T03:00:40.868Z,2.85
2023-08-09T03:03:08.010Z,2.92
2023-08-09T03:05:35.905Z,2.80
2023-08-09T03:08:02.955Z,2.75
2023-08-09T03:10:31.024Z,3.08
2023-08-09T03:12:58.113Z,3.08
2023-08-09T03:15:25.644Z,3.33
2023-08-09T03:17:52.703Z,3.60
2023-08-09T03:20:19.698Z,2.85
2023-08-09T03:22:47.180Z,2.90
2023-08-09T03:25:14.317Z,2.63
2023-08-09T03:27:41.882Z,2.13
2023-08-09T03:30:10.307Z,1.98
2023-08-09T03:32:38.183Z,1.67
2023-08-09T03:35:06.591Z,1.83
2023-08-09T03:37:33.838Z,1.67
2023-08-09T03:40:01.202Z,1.90
2023-08-09T03:42:28.224Z,1.65
2023-08-09T03:44:55.335Z,2.00
2023-08-09T03:47:22.322Z,1.73
2023-08-09T03:49:49.759Z,1.90
2023-08-09T03:52:16.813Z,1.50
2023-08-09T03:54:43.834Z,1.60
2023-08-09T03:57:10.796Z,1.42
2023-08-09T03:59:39.278Z,1.70
2023-08-09T04:02:06.765Z,1.40
2023-08-09T04:04:33.808Z,1.70
2023-08-09T04:07:02.284Z,1.33
2023-08-09T04:09:29.433Z,1.70
2023-08-09T04:11:56.460Z,1.98
2023-08-09T04:14:23.451Z,1.60
2023-08-09T04:16:50.414Z,1.60
2023-08-09T04:19:17.612Z,1.70
2023-08-09T04:21:45.045Z,1.50
2023-08-09T04:24:12.118Z,1.80
2023-08-09T04:26:39.120Z,1.83
2023-08-09T04:29:06.170Z,1.48
2023-08-09T04:31:33.371Z,1.70
2023-08-09T04:34:01.096Z,1.50
2023-08-09T04:36:28.359Z,1.60
2023-08-09T04:38:55.335Z,1.48
2023-08-09T04:41:22.336Z,1.67
2023-08-09T04:43:49.313Z,1.92
2023-08-09T04:46:17.609Z,1.90
2023-08-09T04:48:45.184Z,2.00
2023-08-09T04:51:12.166Z,1.70
2023-08-09T04:53:39.251Z,1.90
2023-08-09T04:56:06.404Z,1.60
2023-08-09T04:58:33.833Z,1.83
2023-08-09T05:01:01.119Z,1.73
2023-08-09T05:03:28.109Z,1.67
2023-08-09T05:05:55.096Z,1.60
2023-08-09T05:08:22.069Z,1.50
2023-08-09T05:10:49.013Z,1.20
2023-08-09T05:13:16.014Z,2.20
2023-08-09T05:15:42.978Z,1.63
2023-08-09T05:18:10.025Z,1.65
2023-08-09T05:20:37.039Z,1.65
2023-08-09T05:23:19.871Z,1.65
2023-08-09T05:25:46.838Z,1.50
2023-08-09T05:28:13.860Z,2.00
2023-08-09T05:30:40.799Z,2.20
2023-08-09T05:33:08.193Z,2.88
2023-08-09T05:35:35.294Z,2.42
2023-08-09T05:38:02.321Z,1.85
2023-08-09T05:40:29.405Z,1.58
2023-08-09T05:42:56.423Z,1.52
2023-08-09T05:45:23.687Z,1.70
2023-08-09T05:47:50.783Z,1.55
2023-08-09T05:50:17.844Z,1.42
2023-08-09T05:52:45.006Z,1.50
2023-08-09T05:55:12.029Z,1.90
2023-08-09T05:57:39.210Z,1.60
2023-08-09T06:00:07.966Z,1.50
2023-08-09T06:02:34.998Z,1.33
2023-08-09T06:05:02.198Z,1.48
2023-08-09T06:07:29.927Z,1.33
2023-08-09T06:09:56.982Z,1.70
2023-08-09T06:12:23.954Z,1.80
2023-08-09T06:14:51.168Z,1.77
2023-08-09T06:17:18.201Z,1.60
2023-08-09T06:19:45.185Z,1.45
2023-08-09T06:22:12.197Z,1.40
2023-08-09T06:24:39.200Z,1.33
2023-08-09T06:27:06.262Z,1.60
2023-08-09T06:29:41.264Z,1.50
2023-08-09T06:32:08.343Z,1.50
2023-08-09T06:34:35.465Z,1.67
2023-08-09T06:37:02.745Z,1.50
2023-08-09T06:39:29.884Z,1.70
2023-08-09T06:41:56.994Z,1.35
2023-08-09T06:44:24.029Z,1.52
2023-08-09T06:46:51.074Z,1.35
2023-08-09T06:49:18.092Z,1.55
2023-08-09T06:51:45.081Z,1.50
2023-08-09T06:54:12.114Z,1.50
2023-08-09T06:56:39.233Z,1.45
2023-08-09T06:59:06.378Z,1.42
2023-08-09T07:01:34.012Z,1.30
2023-08-09T07:04:01.878Z,1.50
2023-08-09T07:06:28.950Z,1.50
2023-08-09T07:08:56.972Z,1.20
2023-08-09T07:11:24.291Z,1.30
2023-08-09T07:13:51.343Z,1.40
2023-08-09T07:16:18.417Z,1.20
2023-08-09T07:18:52.383Z,1.52
2023-08-09T07:21:19.585Z,1.30
2023-08-09T07:23:57.379Z,1.40
2023-08-09T07:26:25.924Z,1.27
2023-08-09T07:28:53.675Z,1.25
2023-08-09T07:31:25.075Z,1.65
2023-08-09T07:33:52.513Z,1.63
2023-08-09T07:36:20.175Z,1.42
2023-08-09T07:38:47.320Z,1.48
2023-08-09T07:41:26.670Z,1.67
2023-08-09T07:43:53.679Z,1.45
2023-08-09T07:46:20.682Z,1.40
2023-08-09T07:48:47.740Z,1.55
2023-08-09T07:51:14.968Z,1.50
2023-08-09T07:53:44.006Z,1.70
2023-08-09T07:56:13.043Z,1.50
2023-08-09T07:58:40.135Z,1.45
2023-08-09T08:01:07.467Z,1.60
2023-08-09T08:03:35.298Z,1.75
2023-08-09T08:06:02.830Z,1.30
2023-08-09T08:08:29.854Z,1.50
2023-08-09T08:10:56.885Z,1.38
2023-08-09T08:13:23.890Z,1.38
2023-08-09T08:15:58.623Z,1.45
2023-08-09T08:21:01.271Z,1.23
2023-08-09T08:23:28.285Z,1.20
2023-08-09T08:25:56.935Z,1.50
2023-08-09T08:28:24.029Z,1.50
2023-08-09T08:30:50.992Z,1.38
2023-08-09T08:33:19.189Z,1.60
2023-08-09T08:35:55.580Z,1.63
2023-08-09T08:38:27.069Z,1.40
2023-08-09T08:40:55.654Z,1.40
2023-08-09T08:43:22.802Z,1.33
2023-08-09T08:45:51.375Z,1.73
2023-08-09T08:48:19.764Z,1.15
2023-08-09T08:50:48.301Z,1.50
2023-08-09T08:55:55.528Z,1.52
2023-08-09T08:58:22.582Z,1.40
2023-08-09T09:00:49.881Z,1.65
2023-08-09T09:03:17.092Z,1.40
2023-08-09T09:05:44.084Z,1.95
2023-08-09T09:08:14.496Z,1.25
2023-08-09T09:10:53.771Z,1.30
2023-08-09T09:13:28.550Z,1.45
2023-08-09T09:15:56.167Z,1.48
2023-08-09T09:18:23.812Z,1.60
2023-08-09T09:20:52.783Z,1.40
2023-08-09T09:23:30.182Z,1.30
2023-08-09T09:26:06.025Z,1.20
2023-08-09T09:28:45.526Z,1.40
2023-08-09T09:31:20.189Z,1.23
2023-08-09T09:33:52.789Z,1.38
2023-08-09T09:36:20.037Z,1.50
2023-08-09T09:38:52.099Z,1.17
2023-08-09T09:41:19.237Z,1.40
2023-08-09T09:43:49.149Z,1.30
2023-08-09T09:49:09.415Z,1.20
2023-08-09T09:51:36.962Z,1.50
2023-08-09T09:54:06.274Z,1.48
2023-08-09T09:56:34.219Z,1.48
2023-08-09T09:59:04.185Z,1.40
2023-08-09T10:01:34.085Z,1.53
2023-08-09T10:04:08.317Z,1.60
2023-08-09T10:06:43.663Z,1.50
2023-08-09T10:09:11.982Z,1.50
2023-08-09T10:11:41.632Z,1.20
2023-08-09T10:14:09.618Z,1.10
2023-08-09T10:16:38.189Z,1.10
2023-08-09T10:19:09.788Z,1.25
2023-08-09T10:21:37.000Z,1.10
2023-08-09T10:24:13.852Z,1.17
2023-08-09T10:26:45.576Z,1.17
2023-08-09T10:29:16.565Z,1.13
2023-08-09T10:31:56.547Z,1.05
2023-08-09T10:34:34.734Z,0.80
2023-08-09T10:37:03.277Z,0.88
2023-08-09T10:39:31.525Z,0.90
2023-08-09T10:42:06.412Z,1.13
2023-08-09T10:44:35.031Z,1.10
2023-08-09T10:47:04.571Z,0.90
2023-08-09T10:49:49.787Z,0.77
2023-08-09T10:52:21.204Z,0.90
2023-08-09T10:55:05.796Z,1.00
2023-08-09T10:57:43.386Z,0.85
2023-08-09T11:00:14.380Z,0.95
2023-08-09T11:02:52.854Z,0.82
2023-08-09T11:05:20.926Z,0.75
2023-08-09T11:07:55.449Z,1.02
2023-08-09T11:10:37.298Z,0.85
2023-08-09T11:13:16.003Z,0.90
2023-08-09T11:15:45.578Z,1.05
2023-08-09T11:18:13.518Z,1.27
2023-08-09T11:20:41.279Z,0.80
2023-08-09T11:23:10.899Z,0.68
2023-08-09T11:25:39.513Z,1.00
2023-08-09T11:28:12.277Z,1.05
2023-08-09T11:30:40.248Z,0.85
2023-08-09T11:33:07.907Z,1.00
2023-08-09T11:35:38.422Z,0.82
2023-08-09T11:38:11.271Z,0.80
2023-08-09T11:40:44.422Z,0.80
2023-08-09T11:43:13.871Z,1.10
2023-08-09T11:45:55.758Z,0.90
2023-08-09T11:48:28.126Z,0.95
2023-08-09T11:51:12.799Z,0.90
2023-08-09T11:53:41.859Z,0.88
2023-08-09T11:56:13.410Z,0.90
2023-08-09T11:58:44.966Z,0.90
2023-08-09T12:01:38.317Z,1.10
2023-08-09T12:04:10.913Z,0.80
2023-08-09T12:06:39.228Z,0.90
2023-08-09T12:09:35.805Z,0.90
2023-08-09T12:12:13.250Z,0.90
2023-08-09T12:14:42.617Z,1.00
2023-08-09T12:17:21.406Z,0.80
2023-08-09T12:19:50.220Z,0.83
2023-08-09T12:22:17.953Z,1.02
2023-08-09T12:24:44.922Z,0.80
2023-08-09T12:27:12.145Z,0.90
2023-08-09T12:29:39.227Z,0.88
2023-08-09T12:32:06.710Z,0.77
2023-08-09T12:34:34.542Z,1.00
2023-08-09T12:37:01.968Z,0.90
2023-08-09T12:39:29.113Z,0.90
2023-08-09T12:41:57.400Z,1.00
2023-08-09T12:44:25.359Z,0.82
2023-08-09T12:46:52.768Z,1.00
2023-08-09T12:49:20.066Z,0.80
2023-08-09T12:51:47.240Z,1.02
2023-08-09T12:54:14.236Z,0.90
2023-08-09T12:56:41.218Z,1.20
2023-08-09T12:59:08.479Z,0.88
2023-08-09T13:01:36.887Z,0.88
2023-08-09T13:04:05.942Z,1.23
2023-08-09T13:06:33.030Z,0.90
2023-08-09T13:09:01.140Z,0.98
2023-08-09T13:11:28.442Z,0.93
2023-08-09T13:13:55.879Z,0.98
2023-08-09T13:16:22.991Z,0.85
2023-08-09T13:18:50.136Z,1.13
2023-08-09T13:21:18.286Z,0.90
2023-08-09T13:23:45.650Z,0.90
2023-08-09T13:26:15.554Z,0.98
2023-08-09T13:28:42.940Z,1.00
2023-08-09T13:31:10.437Z,0.95
2023-08-09T13:33:38.534Z,1.00
2023-08-09T13:36:07.189Z,1.10
2023-08-09T13:38:39.692Z,0.98
2023-08-09T13:41:07.871Z,1.00
2023-08-09T13:43:36.268Z,0.75
2023-08-09T13:46:04.741Z,0.88
2023-08-09T13:48:31.799Z,1.00
2023-08-09T13:50:58.846Z,0.80
2023-08-09T13:53:25.840Z,0.88
2023-08-09T13:55:53.142Z,1.00
2023-08-09T13:58:20.306Z,0.90
2023-08-09T14:00:49.309Z,1.00
2023-08-09T14:03:17.550Z,0.90
2023-08-09T14:05:44.780Z,0.98
2023-08-09T14:08:11.880Z,1.10
2023-08-09T14:10:42.326Z,1.42
2023-08-09T14:13:09.885Z,2.28
2023-08-09T14:15:37.259Z,1.00
2023-08-09T14:18:08.024Z,1.10
2023-08-09T14:20:36.155Z,1.63
2023-08-09T14:23:03.738Z,1.00
2023-08-09T14:25:30.886Z,1.63
2023-08-09T14:27:58.125Z,1.00
2023-08-09T14:30:25.170Z,1.00
2023-08-09T14:32:52.448Z,0.90
2023-08-09T14:35:21.230Z,0.80
2023-08-09T14:37:48.588Z,0.90
2023-08-09T14:40:15.853Z,0.90
2023-08-09T14:42:43.496Z,0.85
2023-08-09T14:45:12.473Z,1.08
2023-08-09T14:47:40.412Z,1.08
2023-08-09T14:50:09.251Z,0.77
2023-08-09T14:52:36.508Z,1.02
2023-08-09T14:55:03.698Z,1.60
2023-08-09T14:57:31.485Z,2.50
2023-08-09T14:59:58.925Z,2.40
2023-08-09T15:02:26.050Z,2.35
2023-08-09T15:04:53.113Z,1.98
2023-08-09T15:07:20.139Z,1.20
2023-08-09T15:09:47.157Z,1.17
2023-08-09T15:12:14.170Z,0.70
2023-08-09T15:14:44.443Z,0.95
2023-08-09T15:19:42.226Z,1.08
2023-08-09T15:22:09.267Z,1.10
2023-08-09T15:24:36.309Z,0.73
2023-08-09T15:27:03.696Z,0.75
2023-08-09T15:29:33.948Z,0.80
2023-08-09T15:32:00.903Z,0.70
2023-08-09T15:34:27.947Z,0.90
2023-08-09T15:36:54.875Z,1.08
2023-08-09T15:39:22.139Z,1.00
2023-08-09T15:41:49.863Z,1.00
2023-08-09T15:44:18.000Z,0.70
2023-08-09T15:46:45.263Z,1.10
2023-08-09T15:49:12.378Z,1.00
2023-08-09T15:51:40.014Z,1.20
2023-08-09T15:54:07.066Z,1.20
2023-08-09T15:56:34.076Z,1.35
2023-08-09T15:59:01.087Z,1.10
2023-08-09T16:01:28.636Z,1.17
2023-08-09T16:03:55.855Z,1.00
2023-08-09T16:06:23.526Z,1.00
2023-08-09T16:08:50.568Z,18.23
2023-08-09T16:11:17.657Z,14.73
2023-08-09T16:13:44.702Z,4.28
2023-08-09T16:16:20.306Z,3.42
2023-08-09T16:18:51.632Z,1.58
2023-08-09T16:21:18.717Z,1.63
2023-08-09T16:23:45.824Z,1.27
2023-08-09T16:26:12.928Z,1.40
2023-08-09T16:28:41.198Z,1.27
2023-08-09T16:31:08.225Z,1.23
2023-08-09T16:33:36.008Z,1.13
2023-08-09T16:36:03.130Z,0.80
2023-08-09T16:38:30.153Z,1.17
2023-08-09T16:40:57.120Z,1.70
2023-08-09T16:43:24.143Z,2.15
2023-08-09T16:45:51.157Z,1.40
2023-08-09T16:48:18.956Z,1.15
2023-08-09T16:50:45.988Z,1.23
2023-08-09T16:53:12.965Z,1.15
2023-08-09T16:55:39.995Z,1.08
2023-08-09T16:58:06.979Z,1.20
2023-08-09T17:00:34.160Z,1.80
2023-08-09T17:03:01.314Z,1.60
2023-08-09T17:05:28.383Z,1.70
2023-08-09T17:07:55.351Z,1.58
2023-08-09T17:10:22.407Z,1.95
2023-08-09T17:12:49.415Z,1.40
2023-08-09T17:15:16.418Z,1.67
2023-08-09T17:17:43.671Z,1.92
2023-08-09T17:20:11.156Z,1.70
2023-08-09T17:22:38.720Z,1.67
2023-08-09T17:25:06.421Z,1.45
2023-08-09T17:27:33.441Z,2.22
2023-08-09T17:30:00.467Z,2.45
2023-08-09T17:32:27.571Z,1.88
2023-08-09T17:34:54.652Z,1.60
2023-08-09T17:37:21.682Z,1.50
2023-08-09T17:39:50.277Z,1.50
2023-08-09T17:42:17.220Z,1.30
2023-08-09T17:44:44.629Z,1.20
2023-08-09T17:47:14.505Z,1.17
2023-08-09T17:49:41.545Z,1.05
2023-08-09T17:52:08.674Z,1.23
2023-08-09T17:54:36.207Z,1.38
2023-08-09T17:57:04.395Z,1.65
2023-08-09T17:59:34.579Z,1.35
2023-08-09T18:02:01.780Z,1.27
2023-08-09T18:04:35.025Z,1.30
2023-08-09T18:07:02.687Z,1.63
2023-08-09T18:09:29.932Z,1.70
2023-08-09T18:11:56.977Z,1.70
2023-08-09T18:14:24.578Z,1.60
2023-08-09T18:16:52.234Z,1.73
2023-08-09T18:19:19.281Z,1.90
2023-08-09T18:21:46.389Z,1.95
2023-08-09T18:24:13.416Z,1.90
2023-08-09T18:26:40.440Z,1.90
2023-08-09T18:29:07.447Z,1.63
2023-08-09T18:31:36.263Z,1.73
2023-08-09T18:34:03.773Z,1.67
2023-08-09T18:36:30.812Z,1.60
2023-08-09T18:38:57.798Z,2.03
2023-08-09T18:41:24.810Z,1.98
2023-08-09T18:43:53.225Z,2.13
2023-08-09T18:46:20.184Z,1.75
2023-08-09T18:48:47.143Z,1.52
2023-08-09T18:51:15.724Z,1.38
2023-08-09T18:53:48.836Z,1.38
2023-08-09T18:56:16.257Z,1.27
2023-08-09T18:58:43.346Z,1.27
2023-08-09T19:01:10.355Z,1.05
2023-08-09T19:03:37.945Z,1.00
2023-08-09T19:06:05.179Z,1.00
2023-08-09T19:08:32.178Z,0.90
2023-08-09T19:10:59.167Z,1.00
2023-08-09T19:13:26.441Z,1.00
2023-08-09T19:15:54.989Z,0.90
2023-08-09T19:18:22.146Z,1.10
2023-08-09T19:20:50.043Z,0.90
2023-08-09T19:23:17.107Z,1.15
2023-08-09T19:25:44.104Z,1.15
2023-08-09T19:28:11.040Z,1.00
2023-08-09T19:30:38.578Z,1.08
2023-08-09T19:33:07.167Z,1.20
2023-08-09T19:35:34.183Z,1.10
2023-08-09T19:38:02.344Z,1.17
2023-08-09T19:40:31.674Z,1.20
2023-08-09T19:42:58.724Z,1.20
2023-08-09T19:45:25.888Z,1.08
2023-08-09T19:48:00.058Z,1.17
2023-08-09T19:50:27.367Z,1.10
2023-08-09T19:52:54.308Z,1.10
2023-08-09T19:55:21.833Z,1.05
2023-08-09T19:57:48.966Z,1.17
2023-08-09T20:00:19.181Z,1.10
2023-08-09T20:02:46.457Z,1.67
2023-08-09T20:05:17.576Z,1.55
2023-08-09T20:07:45.645Z,1.05
2023-08-09T20:10:12.997Z,1.10
2023-08-09T20:12:40.129Z,1.17
2023-08-09T20:15:07.544Z,1.48
2023-08-09T20:17:34.568Z,1.20
2023-08-09T20:20:01.587Z,1.00
2023-08-09T20:22:30.042Z,1.23
2023-08-09T20:24:56.996Z,1.15
2023-08-09T20:27:24.064Z,1.13
2023-08-09T20:32:36.266Z,1.30
2023-08-09T20:35:04.441Z,1.60
2023-08-09T20:37:31.733Z,1.30
2023-08-09T20:39:58.783Z,1.60
2023-08-09T20:42:25.902Z,1.23
2023-08-09T20:44:52.913Z,2.20
2023-08-09T20:47:20.078Z,1.88
2023-08-09T20:49:48.243Z,1.90
2023-08-09T20:52:15.227Z,1.58
2023-08-09T20:54:42.231Z,1.88
2023-08-09T20:57:09.344Z,1.70
2023-08-09T20:59:36.379Z,1.40
2023-08-09T21:02:03.912Z,1.45
2023-08-09T21:04:31.864Z,1.40
2023-08-09T21:06:58.887Z,1.35
2023-08-09T21:09:26.948Z,1.55
2023-08-09T21:11:54.024Z,1.73
2023-08-09T21:14:23.439Z,1.48
2023-08-09T21:16:50.611Z,1.30
2023-08-09T21:19:19.205Z,1.30
2023-08-09T21:21:46.473Z,1.40
2023-08-09T21:26:44.647Z,1.58
2023-08-09T21:29:12.139Z,1.50
2023-08-09T21:31:39.198Z,1.35
2023-08-09T21:34:06.541Z,1.35
2023-08-09T21:36:33.593Z,1.40
2023-08-09T21:39:00.668Z,1.40
2023-08-09T21:41:29.166Z,1.73
2023-08-09T21:43:56.231Z,1.33
2023-08-09T21:46:23.234Z,1.15
2023-08-09T21:48:50.336Z,1.60
2023-08-09T21:51:17.347Z,1.50
2023-08-09T21:53:44.371Z,1.50
2023-08-09T21:56:27.673Z,1.48
2023-08-09T21:58:54.785Z,1.50
2023-08-09T22:01:23.575Z,1.30
2023-08-09T22:03:50.674Z,1.20
2023-08-09T22:06:17.747Z,1.25
2023-08-09T22:08:45.039Z,1.42
2023-08-09T22:11:12.658Z,1.40
2023-08-09T22:13:39.728Z,1.52
2023-08-09T22:16:06.766Z,1.38
2023-08-09T22:18:33.841Z,1.73
2023-08-09T22:21:01.377Z,1.40
2023-08-09T22:23:28.371Z,1.40
2023-08-09T22:25:55.387Z,1.60
2023-08-09T22:28:23.552Z,1.50
2023-08-09T22:30:50.606Z,1.27
2023-08-09T22:33:17.606Z,1.25
2023-08-09T22:35:44.607Z,1.40
2023-08-09T22:38:11.626Z,1.48
2023-08-09T22:40:39.602Z,1.60
2023-08-09T22:43:07.029Z,1.60
2023-08-09T22:45:36.949Z,1.67
2023-08-09T22:48:05.105Z,1.58
2023-08-09T22:50:32.817Z,1.30
2023-08-09T22:52:59.772Z,1.65
2023-08-09T22:55:26.871Z,1.60
2023-08-09T22:57:53.900Z,1.45
2023-08-09T23:00:21.071Z,1.60
2023-08-09T23:02:48.273Z,1.73
2023-08-09T23:05:15.414Z,1.40
2023-08-09T23:07:42.451Z,1.60
2023-08-09T23:10:11.199Z,1.73
2023-08-09T23:12:38.223Z,1.67
2023-08-09T23:15:07.336Z,1.63
2023-08-09T23:17:34.769Z,1.60
2023-08-09T23:20:01.923Z,1.40
2023-08-09T23:22:28.924Z,1.67
2023-08-09T23:24:56.084Z,1.70
2023-08-09T23:27:23.072Z,1.55
2023-08-09T23:29:50.478Z,1.73
2023-08-09T23:32:17.796Z,1.50
2023-08-09T23:34:44.842Z,1.75
2023-08-09T23:37:12.121Z,1.75
2023-08-09T23:39:39.210Z,1.77
2023-08-09T23:42:09.318Z,2.40
2023-08-09T23:44:36.839Z,2.00
2023-08-09T23:47:03.892Z,1.90
2023-08-09T23:49:30.861Z,1.77
2023-08-09T23:51:57.840Z,2.28
2023-08-09T23:54:24.892Z,2.10
2023-08-09T23:56:51.919Z,2.33
2023-08-09T23:59:18.958Z,2.25
